Sao Sebastiao do Cai, Brazil
Current Conditions -  °F | °C
As of 12:00 AM on Saturday 01 Nov 2014 (Local Time) from SBCO Reporting Station
Broken Clouds Broken Clouds  
Wind Chill: 72°   Ceiling: 2000
Heat Index: 72°   Visibility: 6mi
Dew Point: 68°   Wind: 8mph
Humidity: 88%   Direction: 180°S
Pressure: 29.94"   Gusts: NA
Location:  29.65°S, 51.17°W
Report Text: SBCO 010200Z 18007KT 9999 FEW011 BKN020 22/20 Q1014
Loading
Personal Weather Stations






























Interactive Weather Map
Tropical Storm Tracking
New forecast layout! Learn more

10-Day Weather Forecast

Advertisements
Track Severe Weather on mobile